createdAt,value
2022-12-19T00:02:04.264Z,101472.97
2022-12-19T00:04:35.769Z,101476.84
2022-12-19T00:07:05.755Z,101469.97
2022-12-19T00:09:35.690Z,101477.94
2022-12-19T00:12:05.834Z,101485.84
2022-12-19T00:14:38.750Z,101482.03
2022-12-19T00:17:08.609Z,101487.81
2022-12-19T00:19:39.598Z,101498.47
2022-12-19T00:22:11.327Z,101504.25
2022-12-19T00:24:41.587Z,101501.53
2022-12-19T00:27:11.461Z,101507.03
2022-12-19T00:29:41.293Z,101508.09
2022-12-19T00:32:11.105Z,101505.88
2022-12-19T00:34:45.874Z,101512.47
2022-12-19T00:37:15.938Z,101507.53
2022-12-19T00:39:46.015Z,101518.81
2022-12-19T00:42:16.839Z,101519.91
2022-12-19T00:44:46.867Z,101520.72
2022-12-19T00:47:17.375Z,101530.88
2022-12-19T00:49:47.422Z,101528.38
2022-12-19T00:52:19.721Z,101530.03
2022-12-19T00:54:52.656Z,101529.78
2022-12-19T00:57:22.801Z,101529.50
2022-12-19T00:59:52.695Z,101538.53
2022-12-19T01:02:22.692Z,101549.25
2022-12-19T01:04:52.763Z,101550.06
2022-12-19T01:07:22.757Z,101554.47
2022-12-19T01:09:52.770Z,101546.50
2022-12-19T01:12:41.087Z,101566.25
2022-12-19T01:15:11.488Z,101562.97
2022-12-19T01:17:44.403Z,101568.72
2022-12-19T01:20:17.555Z,101573.38
2022-12-19T01:22:49.870Z,101577.78
2022-12-19T01:25:20.943Z,101578.88
2022-12-19T01:27:50.961Z,101585.19
2022-12-19T01:30:21.065Z,101587.09
2022-12-19T01:32:51.727Z,101587.66
2022-12-19T01:35:22.608Z,101592.56
2022-12-19T01:38:07.618Z,101604.09
2022-12-19T01:40:39.884Z,101597.25
2022-12-19T01:43:17.101Z,101604.13
2022-12-19T01:45:48.937Z,101605.22
2022-12-19T01:48:31.395Z,101609.31
2022-12-19T01:51:05.121Z,101619.47
2022-12-19T01:53:49.219Z,101613.44
2022-12-19T01:56:24.990Z,101616.19
2022-12-19T01:59:05.894Z,101609.63
2022-12-19T02:01:51.777Z,101603.84
2022-12-19T02:04:32.238Z,101607.41
2022-12-19T02:07:15.979Z,101598.06
2022-12-19T02:09:52.998Z,101605.22
2022-12-19T02:12:40.244Z,101607.16
2022-12-19T02:15:13.208Z,101598.34
2022-12-19T02:18:20.036Z,101598.09
2022-12-19T02:20:58.957Z,101587.41
2022-12-19T02:23:57.565Z,101599.19
2022-12-19T02:27:01.997Z,101598.09
2022-12-19T02:29:38.719Z,101600.56
2022-12-19T02:32:19.145Z,101603.56
2022-12-19T02:35:25.928Z,101599.72
2022-12-19T02:38:13.199Z,101595.91
2022-12-19T02:41:08.176Z,101591.81
2022-12-19T02:43:44.028Z,101581.38
2022-12-19T02:46:15.509Z,101583.56
2022-12-19T02:48:46.350Z,101579.44
2022-12-19T02:51:16.824Z,101576.72
2022-12-19T02:53:48.727Z,101571.25
2022-12-19T02:56:18.732Z,101577.81
2022-12-19T02:59:13.037Z,101576.44
2022-12-19T03:02:01.293Z,101577.53
2022-12-19T03:04:43.628Z,101573.97
2022-12-19T03:07:55.683Z,101566.28
2022-12-19T03:10:47.612Z,101569.84
2022-12-19T03:13:40.366Z,101561.91
2022-12-19T03:16:13.103Z,101569.84
2022-12-19T03:18:44.466Z,101563.25
2022-12-19T03:21:14.568Z,101551.19
2022-12-19T03:23:45.402Z,101552.03
2022-12-19T03:26:24.151Z,101547.38
2022-12-19T03:29:05.193Z,101539.97
2022-12-19T03:31:37.466Z,101533.66
2022-12-19T03:34:24.859Z,101534.75
2022-12-19T03:36:59.563Z,101519.66
2022-12-19T03:39:31.563Z,101514.16
2022-12-19T03:42:21.678Z,101512.53
2022-12-19T03:44:53.929Z,101509.78
2022-12-19T03:47:51.867Z,101508.44
2022-12-19T03:50:22.334Z,101506.75
2022-12-19T03:53:25.066Z,101509.78
2022-12-19T03:56:07.001Z,101505.09
2022-12-19T03:58:41.009Z,101493.63
2022-12-19T04:01:12.302Z,101497.97
2022-12-19T04:03:42.601Z,101494.44
2022-12-19T04:06:13.891Z,101491.41
2022-12-19T04:08:45.802Z,101485.63
2022-12-19T04:11:22.805Z,101480.69
2022-12-19T04:14:05.477Z,101470.28
2022-12-19T04:16:42.936Z,101461.75
2022-12-19T04:19:45.990Z,101461.50
2022-12-19T04:22:31.720Z,101450.78
2022-12-19T04:25:05.009Z,101455.19
2022-12-19T04:27:38.037Z,101433.78
2022-12-19T04:30:09.030Z,101431.28
2022-12-19T04:32:40.218Z,101437.38
2022-12-19T04:35:10.660Z,101414.84
2022-12-19T04:37:41.397Z,101414.28
2022-12-19T04:40:13.070Z,101410.72
2022-12-19T04:42:43.106Z,101413.47
2022-12-19T04:45:13.465Z,101398.38
2022-12-19T04:47:43.766Z,101395.91
2022-12-19T04:50:13.917Z,101389.31
2022-12-19T04:52:43.781Z,101390.44
2022-12-19T04:55:13.734Z,101380.25
2022-12-19T04:57:43.629Z,101380.50
2022-12-19T05:00:14.619Z,101359.41
2022-12-19T05:02:44.944Z,101355.00
2022-12-19T05:05:15.214Z,101351.72
2022-12-19T05:07:45.106Z,101342.38
2022-12-19T05:10:15.661Z,101351.16
2022-12-19T05:12:46.352Z,101342.38
2022-12-19T05:15:16.609Z,101338.25
2022-12-19T05:17:46.483Z,101316.03
2022-12-19T05:20:16.761Z,101323.44
2022-12-19T05:22:46.793Z,101317.69
2022-12-19T05:25:16.754Z,101306.69
2022-12-19T05:27:46.731Z,101302.25
2022-12-19T05:30:16.666Z,101310.50
2022-12-19T05:32:46.473Z,101298.41
2022-12-19T05:35:16.443Z,101289.66
2022-12-19T05:37:47.534Z,101285.78
2022-12-19T05:40:17.757Z,101278.09
2022-12-19T05:42:47.783Z,101269.88
2022-12-19T05:45:17.736Z,101267.13
2022-12-19T05:47:48.825Z,101257.78
2022-12-19T05:50:20.345Z,101246.81
2022-12-19T05:52:54.847Z,101241.63
2022-12-19T05:55:24.963Z,101244.06
2022-12-19T05:57:54.875Z,101237.47
2022-12-19T06:00:25.006Z,101233.94
2022-12-19T06:02:55.078Z,101229.25
2022-12-19T06:05:25.206Z,101223.22
2022-12-19T06:07:55.087Z,101211.69
2022-12-19T06:10:24.946Z,101201.53
2022-12-19T06:12:55.395Z,101199.63
2022-12-19T06:15:25.472Z,101191.41
2022-12-19T06:17:58.449Z,101182.06
2022-12-19T06:20:28.422Z,101179.31
2022-12-19T06:22:58.266Z,101173.81
2022-12-19T06:25:28.307Z,101166.38
2022-12-19T06:27:58.133Z,101175.72
2022-12-19T06:30:27.982Z,101164.19
2022-12-19T06:32:57.779Z,101151.88
2022-12-19T06:35:27.679Z,101148.56
2022-12-19T06:38:00.896Z,101141.41
2022-12-19T06:40:49.753Z,101134.28
2022-12-19T06:43:19.810Z,101117.81
2022-12-19T06:45:49.744Z,101130.16
2022-12-19T06:48:19.596Z,101120.28
2022-12-19T06:50:49.436Z,101114.50
2022-12-19T06:53:22.707Z,101113.41
2022-12-19T06:55:56.167Z,101105.75
2022-12-19T06:58:26.246Z,101101.59
2022-12-19T07:00:56.835Z,101095.28
2022-12-19T07:03:33.065Z,101090.63
2022-12-19T07:06:03.128Z,101091.44
2022-12-19T07:08:33.191Z,101085.97
2022-12-19T07:11:03.190Z,101085.13
2022-12-19T07:13:33.165Z,101074.97
2022-12-19T07:16:06.663Z,101071.94
2022-12-19T07:18:40.475Z,101075.47
2022-12-19T07:21:13.373Z,101068.88
2022-12-19T07:23:43.791Z,101065.88
2022-12-19T07:26:13.989Z,101066.69
2022-12-19T07:28:46.608Z,101057.34
2022-12-19T07:31:16.717Z,101063.94
2022-12-19T07:33:46.671Z,101058.97
2022-12-19T07:36:16.522Z,101041.16
2022-12-19T07:38:47.679Z,101044.16
2022-12-19T07:41:17.889Z,101037.00
2022-12-19T07:43:47.931Z,101037.84
2022-12-19T07:46:17.972Z,101031.53
2022-12-19T07:48:47.961Z,101024.94
2022-12-19T07:51:17.781Z,101016.69
2022-12-19T07:53:47.684Z,101017.81
2022-12-19T07:56:17.694Z,101012.00
2022-12-19T07:58:47.934Z,101012.00
2022-12-19T08:01:17.923Z,101001.88
2022-12-19T08:03:47.902Z,101014.47
2022-12-19T08:06:17.800Z,101007.59
2022-12-19T08:08:53.967Z,101011.16
2022-12-19T08:11:29.326Z,100995.78
2022-12-19T08:14:00.570Z,100990.00
2022-12-19T08:16:30.816Z,100993.59
2022-12-19T08:19:01.049Z,100990.00
2022-12-19T08:21:31.420Z,100997.44
2022-12-19T08:24:02.835Z,100992.22
2022-12-19T08:26:39.478Z,100997.97
2022-12-19T08:29:12.173Z,100996.34
2022-12-19T08:31:42.942Z,101001.00
2022-12-19T08:34:13.080Z,100989.72
2022-12-19T08:36:43.059Z,100987.25
2022-12-19T08:39:13.389Z,100988.09
2022-12-19T08:41:43.753Z,100981.78
2022-12-19T08:44:15.472Z,100982.06
2022-12-19T08:46:50.079Z,100972.72
2022-12-19T08:49:21.783Z,100977.91
2022-12-19T08:51:52.535Z,100973.25
2022-12-19T08:54:22.858Z,100977.13
2022-12-19T08:56:53.048Z,100977.91
2022-12-19T08:59:31.109Z,100972.44
2022-12-19T09:02:03.230Z,100971.63
2022-12-19T09:06:01.675Z,100969.38
2022-12-19T09:07:26.353Z,100969.38
2022-12-19T09:09:56.860Z,100966.63
2022-12-19T09:12:27.047Z,100959.44
2022-12-19T09:14:57.410Z,100969.91
2022-12-19T09:17:27.555Z,100969.09
2022-12-19T09:19:57.756Z,100974.59
2022-12-19T09:22:29.604Z,100969.31
2022-12-19T09:25:00.008Z,100970.75
2022-12-19T09:27:30.132Z,100984.69
2022-12-19T09:30:00.161Z,100985.28
2022-12-19T09:32:30.631Z,100985.81
2022-12-19T09:35:00.798Z,100989.97
2022-12-19T09:37:30.800Z,100982.53
2022-12-19T09:40:01.556Z,100993.25
2022-12-19T09:42:52.119Z,100982.28
2022-12-19T09:46:03.241Z,100984.75
2022-12-19T09:48:33.409Z,100990.75
2022-12-19T09:51:12.829Z,100984.75
2022-12-19T09:54:09.212Z,100984.47
2022-12-19T09:56:46.169Z,100985.00
2022-12-19T09:59:39.783Z,100983.59
2022-12-19T10:02:37.595Z,100990.19
2022-12-19T10:05:41.218Z,100994.88
2022-12-19T10:08:38.733Z,100999.53
2022-12-19T10:12:38.547Z,100996.25
2022-12-19T10:14:46.098Z,100995.38
2022-12-19T10:17:40.641Z,100997.31
2022-12-19T10:20:35.729Z,101002.22
2022-12-19T10:23:59.309Z,101006.09
2022-12-19T10:26:38.928Z,101015.97
2022-12-19T10:29:29.144Z,101011.56
2022-12-19T10:32:42.558Z,101028.84
2022-12-19T10:35:21.158Z,101029.69
2022-12-19T10:38:02.867Z,101030.22
2022-12-19T10:40:54.048Z,101023.91
2022-12-19T10:43:59.580Z,101028.59
2022-12-19T10:46:51.317Z,101027.22
2022-12-19T10:49:26.053Z,101028.63
2022-12-19T10:51:59.009Z,101037.69
2022-12-19T10:54:40.099Z,101031.91
2022-12-19T10:57:25.684Z,101040.69
2022-12-19T11:00:02.162Z,101034.88
2022-12-19T11:02:37.817Z,101033.53
2022-12-19T11:05:29.842Z,101037.41
2022-12-19T11:08:13.609Z,101043.69
2022-12-19T11:12:58.498Z,101050.03
2022-12-19T11:18:53.641Z,101054.41
2022-12-19T11:22:38.754Z,101054.69
2022-12-19T11:29:16.650Z,101056.84
2022-12-19T11:29:34.432Z,101061.22
2022-12-19T11:29:45.797Z,101068.94
2022-12-19T11:30:43.935Z,101063.97
2022-12-19T11:34:26.693Z,101068.94
2022-12-19T11:37:05.852Z,101083.78
2022-12-19T11:39:55.639Z,101079.13
2022-12-19T11:43:25.491Z,101085.41
2022-12-19T11:45:59.327Z,101091.47
2022-12-19T11:48:38.492Z,101090.91
2022-12-19T11:51:37.673Z,101097.25
2022-12-19T13:03:22.117Z,101206.09
2022-12-19T13:05:52.357Z,101214.81
2022-12-19T13:08:30.546Z,101211.31
2022-12-19T13:11:12.886Z,101211.56
2022-12-19T13:13:54.183Z,101218.13
2022-12-19T13:16:46.296Z,101225.50
2022-12-19T13:19:37.692Z,101226.34
2022-12-19T13:22:09.630Z,101237.56
2022-12-19T13:24:45.763Z,101222.50
2022-12-19T13:27:22.167Z,101233.41
2022-12-19T13:30:09.436Z,101244.16
2022-12-19T13:32:42.671Z,101238.09
2022-12-19T13:36:49.340Z,101237.53
2022-12-19T13:40:00.874Z,101250.19
2022-12-19T13:41:47.349Z,101249.63
2022-12-19T13:44:23.531Z,101255.19
2022-12-19T13:46:54.450Z,101259.81
2022-12-19T13:49:35.481Z,101266.66
2022-12-19T13:52:07.685Z,101261.69
2022-12-19T13:54:49.384Z,101255.66
2022-12-19T13:57:28.156Z,101258.09
2022-12-19T14:00:06.238Z,101264.94
2022-12-19T14:02:57.435Z,101263.56
2022-12-19T14:06:16.940Z,101263.84
2022-12-19T14:08:32.619Z,101257.75
2022-12-19T14:11:35.899Z,101269.03
2022-12-19T14:14:28.247Z,101264.88
2022-12-19T14:17:10.255Z,101264.88
2022-12-19T14:19:46.363Z,101265.97
2022-12-19T14:22:30.335Z,101266.53
2022-12-19T14:25:49.210Z,101261.88
2022-12-19T14:28:19.206Z,101274.22
2022-12-19T14:31:05.331Z,101268.72
2022-12-19T14:34:04.780Z,101273.09
2022-12-19T14:36:39.944Z,101266.81
2022-12-19T14:39:28.754Z,101276.94
2022-12-19T14:43:57.938Z,101275.00
2022-12-19T14:52:26.128Z,101271.44
2022-12-19T14:54:13.810Z,101277.47
2022-12-19T14:54:28.275Z,101267.06
2022-12-19T14:56:16.347Z,101269.50
2022-12-19T14:58:52.379Z,101275.28
2022-12-19T15:01:35.014Z,101279.38
2022-12-19T15:04:52.827Z,101284.06
2022-12-19T15:07:30.705Z,101270.66
2022-12-19T15:11:07.709Z,101279.44
2022-12-19T15:14:52.406Z,101275.28
2022-12-19T15:16:32.222Z,101272.53
2022-12-19T15:19:05.014Z,101272.53
2022-12-19T15:21:36.903Z,101270.34
2022-12-19T15:24:10.628Z,101263.22
2022-12-19T15:26:51.072Z,101272.00
2022-12-19T15:29:22.765Z,101276.41
2022-12-19T15:31:54.335Z,101269.78
2022-12-19T15:34:37.276Z,101266.19
2022-12-19T15:37:09.240Z,101260.94
2022-12-19T15:39:40.637Z,101265.66
2022-12-19T15:42:21.373Z,101269.25
2022-12-19T15:44:53.172Z,101267.06
2022-12-19T15:47:33.199Z,101261.03
2022-12-19T15:50:06.214Z,101260.22
2022-12-19T15:52:36.328Z,101257.47
2022-12-19T15:55:06.561Z,101259.38
2022-12-19T15:57:42.942Z,101247.06
2022-12-19T16:00:26.027Z,101254.75
2022-12-19T16:03:23.141Z,101255.00
2022-12-19T16:05:48.509Z,101250.06
2022-12-19T16:08:25.273Z,101254.22
2022-12-19T16:11:01.758Z,101255.00
2022-12-19T16:13:37.408Z,101253.41
2022-12-19T16:16:15.351Z,101252.31
2022-12-19T16:18:47.582Z,101248.75
2022-12-19T16:21:33.714Z,101250.38
2022-12-19T16:24:04.541Z,101246.00
2022-12-19T16:26:38.575Z,101244.09
2022-12-19T16:29:20.164Z,101239.13
2022-12-19T16:31:49.978Z,101244.09
2022-12-19T16:34:22.465Z,101235.31
2022-12-19T16:36:53.237Z,101249.56
2022-12-19T16:39:23.358Z,101245.72
2022-12-19T16:41:54.175Z,101245.44
2022-12-19T16:44:26.090Z,101236.69
2022-12-19T16:46:56.474Z,101237.47
2022-12-19T16:49:26.764Z,101231.19
2022-12-19T16:51:57.007Z,101232.00
2022-12-19T16:54:27.201Z,101240.53
2022-12-19T16:56:57.749Z,101234.75
2022-12-19T16:59:35.724Z,101235.28
2022-12-19T17:02:36.097Z,101233.38
2022-12-19T17:05:06.754Z,101231.75
2022-12-19T17:07:37.524Z,101227.06
2022-12-19T17:10:08.339Z,101230.38
2022-12-19T17:12:40.872Z,101221.88
2022-12-19T17:15:26.802Z,101218.88
2022-12-19T17:18:00.532Z,101219.69
2022-12-19T17:20:39.611Z,101215.03
2022-12-19T17:23:19.946Z,101218.59
2022-12-19T17:25:51.047Z,101217.47
2022-12-19T17:28:21.308Z,101215.03
2022-12-19T17:30:56.747Z,101215.03
2022-12-19T17:33:35.321Z,101215.03
2022-12-19T17:36:07.661Z,101199.94
2022-12-19T17:38:39.620Z,101198.84
2022-12-19T17:41:18.870Z,101202.13
2022-12-19T17:43:51.122Z,101193.88
2022-12-19T17:46:23.607Z,101192.81
2022-12-19T17:48:55.884Z,101191.69
2022-12-19T17:51:26.931Z,101188.69
2022-12-19T17:53:57.742Z,101184.31
2022-12-19T17:56:27.903Z,101177.44
2022-12-19T17:58:58.571Z,101181.81
2022-12-19T18:01:28.980Z,101183.47
2022-12-19T18:04:00.801Z,101178.53
2022-12-19T18:06:31.019Z,101170.84
2022-12-19T18:09:01.193Z,101175.78
2022-12-19T18:11:35.414Z,101168.97
2022-12-19T18:14:08.519Z,101163.47
2022-12-19T18:16:38.609Z,101164.00
2022-12-19T18:19:09.449Z,101155.78
2022-12-19T18:21:39.582Z,101151.94
2022-12-19T18:24:16.906Z,101151.41
2022-12-19T18:26:48.624Z,101156.88
2022-12-19T18:29:18.858Z,101147.56
2022-12-19T18:31:51.085Z,101142.63
2022-12-19T18:34:25.376Z,101145.09
2022-12-19T18:36:56.323Z,101143.72
2022-12-19T18:39:29.078Z,101134.97
2022-12-19T18:42:00.215Z,101137.69
2022-12-19T18:44:30.774Z,101136.34
2022-12-19T18:47:01.436Z,101126.47
2022-12-19T18:49:32.801Z,101124.56
2022-12-19T18:52:03.413Z,101126.19
2022-12-19T18:54:34.885Z,101119.34
2022-12-19T18:57:04.923Z,101131.94
2022-12-19T18:59:35.719Z,101125.91
2022-12-19T19:02:07.099Z,101109.72
2022-12-19T19:04:37.490Z,101112.53
2022-12-19T19:07:07.509Z,101113.53
2022-12-19T19:09:37.573Z,101112.44
2022-12-19T19:12:26.237Z,101110.25
2022-12-19T19:14:56.433Z,101100.16
2022-12-19T19:17:31.032Z,101102.34
2022-12-19T19:20:01.309Z,101106.50
2022-12-19T19:22:31.813Z,101110.34
2022-12-19T19:25:01.971Z,101103.22
2022-12-19T19:27:32.473Z,101089.78
2022-12-19T19:30:02.510Z,101092.78
2022-12-19T19:32:35.188Z,101093.88
2022-12-19T19:35:08.511Z,101097.44
2022-12-19T19:37:40.463Z,101089.19
2022-12-19T19:40:11.791Z,101088.09
2022-12-19T19:42:44.455Z,101090.59
2022-12-19T19:45:15.844Z,101083.22
2022-12-19T19:47:46.683Z,101079.94
2022-12-19T19:50:17.054Z,101069.19
2022-12-19T19:52:47.549Z,101071.63
2022-12-19T19:55:18.143Z,101067.00
2022-12-19T19:57:49.300Z,101059.63
2022-12-19T20:00:20.830Z,101051.13
2022-12-19T20:02:51.219Z,101055.56
2022-12-19T20:05:21.958Z,101042.34
2022-12-19T20:07:52.049Z,101058.31
2022-12-19T20:10:22.050Z,101051.16
2022-12-19T20:12:51.987Z,101044.06
2022-12-19T20:15:22.501Z,101045.97
2022-12-19T20:17:54.134Z,101038.25
2022-12-19T20:20:24.360Z,101034.97
2022-12-19T20:22:55.574Z,101027.84
2022-12-19T20:25:25.725Z,101034.44
2022-12-19T20:28:00.516Z,101026.50
2022-12-19T20:30:30.651Z,101026.50
2022-12-19T20:33:00.765Z,101024.56
2022-12-19T20:35:30.969Z,101022.66
2022-12-19T20:38:01.261Z,101018.00
2022-12-19T20:40:31.291Z,101017.72
2022-12-19T20:43:01.323Z,101019.63
2022-12-19T20:45:31.821Z,101021.84
2022-12-19T20:48:02.373Z,101018.00
2022-12-19T20:50:32.580Z,101021.03
2022-12-19T20:53:03.010Z,101015.53
2022-12-19T20:55:33.628Z,101017.19
2022-12-19T20:58:04.066Z,101016.34
2022-12-19T21:00:35.249Z,101021.59
2022-12-19T21:05:57.104Z,101018.31
2022-12-19T21:08:28.886Z,101014.47
2022-12-19T21:11:00.365Z,101019.38
2022-12-19T21:13:31.932Z,101021.03
2022-12-19T21:16:09.221Z,101025.41
2022-12-19T21:18:42.446Z,101016.69
2022-12-19T21:21:17.268Z,101018.03
2022-12-19T21:23:49.080Z,101006.56
2022-12-19T21:26:19.297Z,101013.41
2022-12-19T21:28:49.565Z,101014.47
2022-12-19T21:31:23.467Z,101023.00
2022-12-19T21:33:57.096Z,101022.16
2022-12-19T21:36:28.764Z,101034.78
2022-12-19T21:39:02.099Z,101030.69
2022-12-19T21:41:32.748Z,101040.25
2022-12-19T21:44:03.442Z,101047.44
2022-12-19T21:46:35.489Z,101047.44
2022-12-19T21:49:06.295Z,101049.66
2022-12-19T21:51:36.467Z,101049.63
2022-12-19T21:54:09.130Z,101050.19
2022-12-19T21:56:41.972Z,101054.25
2022-12-19T21:59:18.414Z,101063.34
2022-12-19T22:01:48.772Z,101059.22
2022-12-19T22:04:25.845Z,101062.25
2022-12-19T22:06:55.990Z,101070.50
2022-12-19T22:09:26.255Z,101065.56
2022-12-19T22:11:56.445Z,101071.03
2022-12-19T22:14:26.717Z,101075.97
2022-12-19T22:16:57.063Z,101075.72
2022-12-19T22:19:28.169Z,101086.94
2022-12-19T22:21:58.302Z,101092.97
2022-12-19T22:24:28.512Z,101092.41
2022-12-19T22:26:59.888Z,101092.66
2022-12-19T22:29:30.636Z,101103.38
2022-12-19T22:32:00.802Z,101097.91
2022-12-19T22:34:31.138Z,101105.84
2022-12-19T22:37:01.981Z,101110.50
2022-12-19T22:39:32.658Z,101098.72
2022-12-19T22:42:02.850Z,101111.63
2022-12-19T22:44:32.864Z,101111.59
2022-12-19T22:47:02.921Z,101110.81
2022-12-19T22:49:33.043Z,101114.91
2022-12-19T22:53:12.839Z,101114.03
2022-12-19T22:55:43.632Z,101114.34
2022-12-19T22:58:13.721Z,101114.66
2022-12-19T23:00:45.065Z,101113.34
2022-12-19T23:03:15.462Z,101117.19
2022-12-19T23:05:51.581Z,101120.53
2022-12-19T23:08:22.339Z,101123.53
2022-12-19T23:10:54.445Z,101121.34
2022-12-19T23:13:25.882Z,101130.91
2022-12-19T23:15:58.436Z,101124.88
2022-12-19T23:18:28.840Z,101133.66
2022-12-19T23:21:14.703Z,101143.25
2022-12-19T23:23:47.188Z,101135.28
2022-12-19T23:26:20.503Z,101135.03
2022-12-19T23:28:57.529Z,101157.75
2022-12-19T23:31:28.719Z,101155.53
2022-12-19T23:34:00.477Z,101164.34
2022-12-19T23:39:21.764Z,101168.16
2022-12-19T23:41:51.932Z,101178.84
2022-12-19T23:44:22.698Z,101182.97
2022-12-19T23:46:56.558Z,101190.09
2022-12-19T23:49:31.342Z,101185.41
2022-12-19T23:52:01.601Z,101201.03
2022-12-19T23:54:31.936Z,101198.28
2022-12-19T23:57:02.100Z,101211.44
2022-12-19T23:59:32.155Z,101217.50
